sensor_id;sensor_type;location;lat;lon;timestamp;pressure;altitude;pressure_sealevel;temperature
24714;BMP280;12820;51.580;5.010;2023-08-08T00:01:51;101438.38;;;16.95
24714;BMP280;12820;51.580;5.010;2023-08-08T00:06:53;101434.13;;;16.95
24714;BMP280;12820;51.580;5.010;2023-08-08T00:11:55;101427.38;;;16.94
24714;BMP280;12820;51.580;5.010;2023-08-08T00:17:00;101421.44;;;16.95
24714;BMP280;12820;51.580;5.010;2023-08-08T00:22:03;101434.84;;;16.99
24714;BMP280;12820;51.580;5.010;2023-08-08T00:27:05;101421.25;;;17.01
24714;BMP280;12820;51.580;5.010;2023-08-08T00:32:07;101416.03;;;17.06
24714;BMP280;12820;51.580;5.010;2023-08-08T00:37:09;101434.56;;;17.07
24714;BMP280;12820;51.580;5.010;2023-08-08T00:42:12;101434.50;;;17.10
24714;BMP280;12820;51.580;5.010;2023-08-08T00:47:15;101436.94;;;17.13
24714;BMP280;12820;51.580;5.010;2023-08-08T00:52:17;101420.72;;;17.17
24714;BMP280;12820;51.580;5.010;2023-08-08T00:57:20;101417.22;;;17.21
24714;BMP280;12820;51.580;5.010;2023-08-08T01:02:22;101410.28;;;17.26
24714;BMP280;12820;51.580;5.010;2023-08-08T01:12:45;101415.25;;;17.29
24714;BMP280;12820;51.580;5.010;2023-08-08T01:17:48;101414.31;;;17.31
24714;BMP280;12820;51.580;5.010;2023-08-08T01:28:24;101412.59;;;17.32
24714;BMP280;12820;51.580;5.010;2023-08-08T01:33:27;101398.25;;;17.31
24714;BMP280;12820;51.580;5.010;2023-08-08T01:38:42;101390.72;;;17.28
24714;BMP280;12820;51.580;5.010;2023-08-08T01:43:45;101401.03;;;17.24
24714;BMP280;12820;51.580;5.010;2023-08-08T01:48:47;101386.81;;;17.18
24714;BMP280;12820;51.580;5.010;2023-08-08T01:53:49;101403.84;;;17.16
24714;BMP280;12820;51.580;5.010;2023-08-08T01:58:51;101392.06;;;17.12
24714;BMP280;12820;51.580;5.010;2023-08-08T02:03:54;101397.16;;;17.12
24714;BMP280;12820;51.580;5.010;2023-08-08T02:08:57;101398.91;;;17.12
24714;BMP280;12820;51.580;5.010;2023-08-08T02:14:00;101387.00;;;17.12
24714;BMP280;12820;51.580;5.010;2023-08-08T02:19:02;101389.53;;;17.12
24714;BMP280;12820;51.580;5.010;2023-08-08T02:24:04;101384.47;;;17.12
24714;BMP280;12820;51.580;5.010;2023-08-08T02:29:06;101376.94;;;17.09
24714;BMP280;12820;51.580;5.010;2023-08-08T02:34:08;101360.03;;;17.08
24714;BMP280;12820;51.580;5.010;2023-08-08T02:39:11;101364.41;;;17.05
24714;BMP280;12820;51.580;5.010;2023-08-08T02:44:13;101367.03;;;17.02
24714;BMP280;12820;51.580;5.010;2023-08-08T02:49:15;101362.88;;;17.00
24714;BMP280;12820;51.580;5.010;2023-08-08T02:54:17;101352.81;;;16.97
24714;BMP280;12820;51.580;5.010;2023-08-08T02:59:19;101358.75;;;16.97
24714;BMP280;12820;51.580;5.010;2023-08-08T03:04:25;101362.19;;;16.95
24714;BMP280;12820;51.580;5.010;2023-08-08T03:09:27;101354.59;;;16.93
24714;BMP280;12820;51.580;5.010;2023-08-08T03:14:29;101363.13;;;16.92
24714;BMP280;12820;51.580;5.010;2023-08-08T03:19:33;101357.22;;;16.92
24714;BMP280;12820;51.580;5.010;2023-08-08T03:24:37;101363.16;;;16.91
24714;BMP280;12820;51.580;5.010;2023-08-08T03:29:39;101364.84;;;16.90
24714;BMP280;12820;51.580;5.010;2023-08-08T03:34:42;101358.22;;;16.85
24714;BMP280;12820;51.580;5.010;2023-08-08T03:39:47;101361.78;;;16.80
24714;BMP280;12820;51.580;5.010;2023-08-08T03:44:50;101348.38;;;16.76
24714;BMP280;12820;51.580;5.010;2023-08-08T03:49:55;101346.84;;;16.71
24714;BMP280;12820;51.580;5.010;2023-08-08T03:54:59;101347.00;;;16.67
24714;BMP280;12820;51.580;5.010;2023-08-08T04:00:01;101347.13;;;16.62
24714;BMP280;12820;51.580;5.010;2023-08-08T04:05:14;101348.06;;;16.60
24714;BMP280;12820;51.580;5.010;2023-08-08T04:10:16;101350.53;;;16.61
24714;BMP280;12820;51.580;5.010;2023-08-08T04:15:18;101351.38;;;16.62
24714;BMP280;12820;51.580;5.010;2023-08-08T04:20:21;101348.06;;;16.60
24714;BMP280;12820;51.580;5.010;2023-08-08T04:25:23;101343.91;;;16.57
24714;BMP280;12820;51.580;5.010;2023-08-08T04:30:25;101345.00;;;16.49
24714;BMP280;12820;51.580;5.010;2023-08-08T04:35:27;101346.84;;;16.44
24714;BMP280;12820;51.580;5.010;2023-08-08T04:40:29;101352.91;;;16.40
24714;BMP280;12820;51.580;5.010;2023-08-08T04:45:31;101352.09;;;16.38
24714;BMP280;12820;51.580;5.010;2023-08-08T04:50:34;101360.53;;;16.39
24714;BMP280;12820;51.580;5.010;2023-08-08T04:55:36;101352.13;;;16.37
24714;BMP280;12820;51.580;5.010;2023-08-08T05:00:38;101350.50;;;16.36
24714;BMP280;12820;51.580;5.010;2023-08-08T05:05:40;101358.91;;;16.36
24714;BMP280;12820;51.580;5.010;2023-08-08T05:10:42;101355.47;;;16.39
24714;BMP280;12820;51.580;5.010;2023-08-08T05:15:44;101353.53;;;16.47
24714;BMP280;12820;51.580;5.010;2023-08-08T05:20:46;101360.06;;;16.55
24714;BMP280;12820;51.580;5.010;2023-08-08T05:25:49;101362.31;;;16.64
24714;BMP280;12820;51.580;5.010;2023-08-08T05:30:51;101368.09;;;16.69
24714;BMP280;12820;51.580;5.010;2023-08-08T05:35:53;101359.41;;;16.75
24714;BMP280;12820;51.580;5.010;2023-08-08T05:40:55;101364.94;;;16.88
24714;BMP280;12820;51.580;5.010;2023-08-08T05:45:57;101363.75;;;16.99
24714;BMP280;12820;51.580;5.010;2023-08-08T05:50:59;101355.75;;;17.10
24714;BMP280;12820;51.580;5.010;2023-08-08T05:56:02;101363.19;;;17.16
24714;BMP280;12820;51.580;5.010;2023-08-08T06:01:05;101373.13;;;17.22
24714;BMP280;12820;51.580;5.010;2023-08-08T06:06:13;101373.88;;;17.25
24714;BMP280;12820;51.580;5.010;2023-08-08T06:11:16;101377.03;;;17.32
24714;BMP280;12820;51.580;5.010;2023-08-08T06:16:19;101379.19;;;17.43
24714;BMP280;12820;51.580;5.010;2023-08-08T06:21:22;101383.03;;;17.55
24714;BMP280;12820;51.580;5.010;2023-08-08T06:26:24;101377.50;;;17.68
24714;BMP280;12820;51.580;5.010;2023-08-08T06:31:27;101377.97;;;17.78
24714;BMP280;12820;51.580;5.010;2023-08-08T06:36:29;101381.94;;;17.87
24714;BMP280;12820;51.580;5.010;2023-08-08T06:41:31;101386.66;;;17.97
24714;BMP280;12820;51.580;5.010;2023-08-08T06:46:34;101383.56;;;18.12
24714;BMP280;12820;51.580;5.010;2023-08-08T06:51:37;101377.75;;;18.31
24714;BMP280;12820;51.580;5.010;2023-08-08T06:56:39;101381.22;;;18.50
24714;BMP280;12820;51.580;5.010;2023-08-08T07:01:41;101382.88;;;18.74
24714;BMP280;12820;51.580;5.010;2023-08-08T07:06:43;101388.03;;;18.93
24714;BMP280;12820;51.580;5.010;2023-08-08T07:11:46;101390.75;;;19.10
24714;BMP280;12820;51.580;5.010;2023-08-08T07:16:50;101379.22;;;19.21
24714;BMP280;12820;51.580;5.010;2023-08-08T07:21:52;101382.13;;;19.33
24714;BMP280;12820;51.580;5.010;2023-08-08T07:26:58;101376.50;;;19.45
24714;BMP280;12820;51.580;5.010;2023-08-08T07:32:03;101376.50;;;19.66
24714;BMP280;12820;51.580;5.010;2023-08-08T07:37:06;101367.06;;;19.87
24714;BMP280;12820;51.580;5.010;2023-08-08T07:42:08;101369.28;;;20.12
24714;BMP280;12820;51.580;5.010;2023-08-08T07:47:10;101371.69;;;20.35
24714;BMP280;12820;51.580;5.010;2023-08-08T07:52:14;101372.81;;;20.47
24714;BMP280;12820;51.580;5.010;2023-08-08T07:57:16;101369.22;;;20.51
24714;BMP280;12820;51.580;5.010;2023-08-08T08:02:18;101372.44;;;20.55
24714;BMP280;12820;51.580;5.010;2023-08-08T08:07:21;101381.84;;;20.72
24714;BMP280;12820;51.580;5.010;2023-08-08T08:12:24;101378.41;;;20.90
24714;BMP280;12820;51.580;5.010;2023-08-08T08:17:26;101365.13;;;21.00
24714;BMP280;12820;51.580;5.010;2023-08-08T08:22:30;101377.28;;;21.13
24714;BMP280;12820;51.580;5.010;2023-08-08T08:27:32;101374.28;;;21.22
24714;BMP280;12820;51.580;5.010;2023-08-08T08:32:39;101377.69;;;21.04
24714;BMP280;12820;51.580;5.010;2023-08-08T08:37:42;101386.16;;;20.88
24714;BMP280;12820;51.580;5.010;2023-08-08T08:42:44;101381.13;;;20.87
24714;BMP280;12820;51.580;5.010;2023-08-08T08:47:49;101379.69;;;20.82
24714;BMP280;12820;51.580;5.010;2023-08-08T08:52:53;101378.28;;;20.75
24714;BMP280;12820;51.580;5.010;2023-08-08T08:57:57;101383.63;;;20.70
24714;BMP280;12820;51.580;5.010;2023-08-08T09:02:59;101382.78;;;20.70
24714;BMP280;12820;51.580;5.010;2023-08-08T09:08:02;101380.28;;;20.86
24714;BMP280;12820;51.580;5.010;2023-08-08T09:13:04;101386.78;;;21.28
24714;BMP280;12820;51.580;5.010;2023-08-08T09:18:09;101381.38;;;21.67
24714;BMP280;12820;51.580;5.010;2023-08-08T09:23:11;101379.88;;;22.11
24714;BMP280;12820;51.580;5.010;2023-08-08T09:28:14;101383.00;;;22.47
24714;BMP280;12820;51.580;5.010;2023-08-08T09:33:17;101381.13;;;22.66
24714;BMP280;12820;51.580;5.010;2023-08-08T09:38:19;101375.50;;;22.75
24714;BMP280;12820;51.580;5.010;2023-08-08T09:43:22;101378.53;;;22.96
24714;BMP280;12820;51.580;5.010;2023-08-08T09:48:29;101370.06;;;23.24
24714;BMP280;12820;51.580;5.010;2023-08-08T09:53:33;101367.25;;;23.29
24714;BMP280;12820;51.580;5.010;2023-08-08T09:58:36;101374.06;;;23.43
24714;BMP280;12820;51.580;5.010;2023-08-08T10:03:38;101383.34;;;23.46
24714;BMP280;12820;51.580;5.010;2023-08-08T10:08:42;101369.25;;;23.52
24714;BMP280;12820;51.580;5.010;2023-08-08T10:13:49;101382.00;;;23.39
24714;BMP280;12820;51.580;5.010;2023-08-08T10:19:10;101385.22;;;23.29
24714;BMP280;12820;51.580;5.010;2023-08-08T10:24:12;101380.56;;;23.49
24714;BMP280;12820;51.580;5.010;2023-08-08T10:29:18;101371.75;;;25.14
24714;BMP280;12820;51.580;5.010;2023-08-08T10:34:20;101364.66;;;26.29
24714;BMP280;12820;51.580;5.010;2023-08-08T10:39:26;101372.75;;;25.88
24714;BMP280;12820;51.580;5.010;2023-08-08T10:44:28;101372.56;;;25.15
24714;BMP280;12820;51.580;5.010;2023-08-08T10:49:30;101361.19;;;25.69
24714;BMP280;12820;51.580;5.010;2023-08-08T10:54:32;101365.16;;;27.27
24714;BMP280;12820;51.580;5.010;2023-08-08T10:59:37;101348.91;;;27.58
24714;BMP280;12820;51.580;5.010;2023-08-08T11:04:40;101356.22;;;26.15
24714;BMP280;12820;51.580;5.010;2023-08-08T11:09:43;101366.84;;;25.24
24714;BMP280;12820;51.580;5.010;2023-08-08T11:14:45;101358.66;;;25.43
24714;BMP280;12820;51.580;5.010;2023-08-08T11:19:47;101340.00;;;29.50
24714;BMP280;12820;51.580;5.010;2023-08-08T11:24:50;101329.78;;;31.84
24714;BMP280;12820;51.580;5.010;2023-08-08T11:29:53;101336.97;;;31.64
24714;BMP280;12820;51.580;5.010;2023-08-08T11:34:55;101340.78;;;32.83
24714;BMP280;12820;51.580;5.010;2023-08-08T11:39:58;101321.84;;;32.91
24714;BMP280;12820;51.580;5.010;2023-08-08T11:45:00;101332.94;;;31.24
24714;BMP280;12820;51.580;5.010;2023-08-08T11:50:03;101340.41;;;30.63
24714;BMP280;12820;51.580;5.010;2023-08-08T11:55:09;101322.25;;;31.37
24714;BMP280;12820;51.580;5.010;2023-08-08T12:00:12;101317.59;;;33.07
24714;BMP280;12820;51.580;5.010;2023-08-08T12:05:14;101313.22;;;34.55
24714;BMP280;12820;51.580;5.010;2023-08-08T12:10:36;101301.63;;;36.27
24714;BMP280;12820;51.580;5.010;2023-08-08T12:15:52;101319.22;;;36.11
24714;BMP280;12820;51.580;5.010;2023-08-08T12:21:21;101299.13;;;36.63
24714;BMP280;12820;51.580;5.010;2023-08-08T12:26:24;101294.03;;;35.02
24714;BMP280;12820;51.580;5.010;2023-08-08T12:31:26;101306.19;;;33.25
24714;BMP280;12820;51.580;5.010;2023-08-08T12:36:28;101298.88;;;31.81
24714;BMP280;12820;51.580;5.010;2023-08-08T12:41:30;101293.41;;;31.12
24714;BMP280;12820;51.580;5.010;2023-08-08T12:46:32;101300.38;;;30.84
24714;BMP280;12820;51.580;5.010;2023-08-08T12:51:35;101303.13;;;31.19
24714;BMP280;12820;51.580;5.010;2023-08-08T12:56:37;101294.25;;;31.76
24714;BMP280;12820;51.580;5.010;2023-08-08T13:01:39;101282.47;;;32.77
24714;BMP280;12820;51.580;5.010;2023-08-08T13:06:41;101281.94;;;32.39
24714;BMP280;12820;51.580;5.010;2023-08-08T13:11:44;101292.47;;;32.55
24714;BMP280;12820;51.580;5.010;2023-08-08T13:16:46;101300.09;;;31.42
24714;BMP280;12820;51.580;5.010;2023-08-08T13:21:48;101296.84;;;30.94
24714;BMP280;12820;51.580;5.010;2023-08-08T13:26:52;101299.31;;;30.95
24714;BMP280;12820;51.580;5.010;2023-08-08T13:31:54;101299.97;;;30.13
24714;BMP280;12820;51.580;5.010;2023-08-08T13:36:56;101316.13;;;29.67
24714;BMP280;12820;51.580;5.010;2023-08-08T13:41:59;101316.72;;;29.99
24714;BMP280;12820;51.580;5.010;2023-08-08T13:47:02;101316.41;;;29.44
24714;BMP280;12820;51.580;5.010;2023-08-08T13:52:04;101316.03;;;29.97
24714;BMP280;12820;51.580;5.010;2023-08-08T13:57:07;101303.06;;;32.53
24714;BMP280;12820;51.580;5.010;2023-08-08T14:02:09;101290.81;;;35.24
24714;BMP280;12820;51.580;5.010;2023-08-08T14:07:11;101295.16;;;35.16
24714;BMP280;12820;51.580;5.010;2023-08-08T14:12:13;101290.19;;;33.20
24714;BMP280;12820;51.580;5.010;2023-08-08T14:17:15;101293.66;;;31.46
24714;BMP280;12820;51.580;5.010;2023-08-08T14:22:17;101306.78;;;30.70
24714;BMP280;12820;51.580;5.010;2023-08-08T14:27:20;101296.19;;;30.92
24714;BMP280;12820;51.580;5.010;2023-08-08T14:32:22;101283.41;;;30.52
24714;BMP280;12820;51.580;5.010;2023-08-08T14:37:24;101273.00;;;30.33
24714;BMP280;12820;51.580;5.010;2023-08-08T14:42:27;101282.31;;;29.68
24714;BMP280;12820;51.580;5.010;2023-08-08T14:47:29;101281.34;;;28.89
24714;BMP280;12820;51.580;5.010;2023-08-08T14:52:31;101310.69;;;28.27
24714;BMP280;12820;51.580;5.010;2023-08-08T14:57:34;101311.66;;;27.83
24714;BMP280;12820;51.580;5.010;2023-08-08T15:02:36;101305.69;;;27.49
24714;BMP280;12820;51.580;5.010;2023-08-08T15:07:38;101298.38;;;27.22
24714;BMP280;12820;51.580;5.010;2023-08-08T15:12:40;101304.34;;;26.89
24714;BMP280;12820;51.580;5.010;2023-08-08T15:17:43;101308.47;;;26.69
24714;BMP280;12820;51.580;5.010;2023-08-08T15:22:45;101321.66;;;26.29
24714;BMP280;12820;51.580;5.010;2023-08-08T15:27:47;101330.50;;;26.02
24714;BMP280;12820;51.580;5.010;2023-08-08T15:32:50;101327.69;;;25.81
24714;BMP280;12820;51.580;5.010;2023-08-08T15:37:52;101319.94;;;25.57
24714;BMP280;12820;51.580;5.010;2023-08-08T15:42:54;101322.09;;;25.26
24714;BMP280;12820;51.580;5.010;2023-08-08T15:47:56;101329.13;;;24.98
24714;BMP280;12820;51.580;5.010;2023-08-08T15:52:58;101326.38;;;24.76
24714;BMP280;12820;51.580;5.010;2023-08-08T15:58:03;101331.66;;;24.47
24714;BMP280;12820;51.580;5.010;2023-08-08T16:03:05;101315.34;;;24.21
24714;BMP280;12820;51.580;5.010;2023-08-08T16:08:08;101323.44;;;24.01
24714;BMP280;12820;51.580;5.010;2023-08-08T16:13:10;101329.13;;;23.92
24714;BMP280;12820;51.580;5.010;2023-08-08T16:18:12;101329.31;;;23.89
24714;BMP280;12820;51.580;5.010;2023-08-08T16:23:15;101311.91;;;23.94
24714;BMP280;12820;51.580;5.010;2023-08-08T16:28:17;101306.78;;;23.94
24714;BMP280;12820;51.580;5.010;2023-08-08T16:33:19;101304.38;;;23.91
24714;BMP280;12820;51.580;5.010;2023-08-08T16:38:24;101295.19;;;23.87
24714;BMP280;12820;51.580;5.010;2023-08-08T16:43:27;101295.53;;;23.82
24714;BMP280;12820;51.580;5.010;2023-08-08T16:48:33;101297.13;;;23.70
24714;BMP280;12820;51.580;5.010;2023-08-08T16:53:37;101293.81;;;23.55
24714;BMP280;12820;51.580;5.010;2023-08-08T16:58:39;101291.31;;;23.40
24714;BMP280;12820;51.580;5.010;2023-08-08T17:03:43;101294.03;;;23.23
24714;BMP280;12820;51.580;5.010;2023-08-08T17:08:47;101308.94;;;23.02
24714;BMP280;12820;51.580;5.010;2023-08-08T17:13:49;101315.47;;;22.79
24714;BMP280;12820;51.580;5.010;2023-08-08T17:18:52;101322.41;;;22.46
24714;BMP280;12820;51.580;5.010;2023-08-08T17:23:54;101317.38;;;22.15
24714;BMP280;12820;51.580;5.010;2023-08-08T17:28:57;101313.75;;;21.87
24714;BMP280;12820;51.580;5.010;2023-08-08T17:33:59;101301.22;;;21.66
24714;BMP280;12820;51.580;5.010;2023-08-08T17:39:02;101300.63;;;21.45
24714;BMP280;12820;51.580;5.010;2023-08-08T17:44:04;101293.06;;;21.27
24714;BMP280;12820;51.580;5.010;2023-08-08T17:49:08;101305.06;;;21.08
24714;BMP280;12820;51.580;5.010;2023-08-08T17:54:10;101310.91;;;20.94
24714;BMP280;12820;51.580;5.010;2023-08-08T17:59:13;101298.88;;;20.79
24714;BMP280;12820;51.580;5.010;2023-08-08T18:04:15;101295.25;;;20.66
24714;BMP280;12820;51.580;5.010;2023-08-08T18:09:17;101297.41;;;20.57
24714;BMP280;12820;51.580;5.010;2023-08-08T18:14:19;101292.19;;;20.42
24714;BMP280;12820;51.580;5.010;2023-08-08T18:19:21;101291.91;;;20.30
24714;BMP280;12820;51.580;5.010;2023-08-08T18:24:24;101282.25;;;20.18
24714;BMP280;12820;51.580;5.010;2023-08-08T18:29:26;101271.63;;;20.09
24714;BMP280;12820;51.580;5.010;2023-08-08T18:34:29;101271.19;;;20.00
24714;BMP280;12820;51.580;5.010;2023-08-08T18:39:31;101269.91;;;19.92
24714;BMP280;12820;51.580;5.010;2023-08-08T18:44:33;101255.75;;;19.85
24714;BMP280;12820;51.580;5.010;2023-08-08T18:49:35;101251.06;;;19.76
24714;BMP280;12820;51.580;5.010;2023-08-08T18:54:38;101255.59;;;19.70
24714;BMP280;12820;51.580;5.010;2023-08-08T18:59:40;101255.78;;;19.65
24714;BMP280;12820;51.580;5.010;2023-08-08T19:04:42;101258.56;;;19.61
24714;BMP280;12820;51.580;5.010;2023-08-08T19:09:45;101257.88;;;19.58
24714;BMP280;12820;51.580;5.010;2023-08-08T19:14:47;101246.84;;;19.57
24714;BMP280;12820;51.580;5.010;2023-08-08T19:19:49;101246.88;;;19.56
24714;BMP280;12820;51.580;5.010;2023-08-08T19:24:51;101248.69;;;19.54
24714;BMP280;12820;51.580;5.010;2023-08-08T19:29:54;101248.75;;;19.52
24714;BMP280;12820;51.580;5.010;2023-08-08T19:34:57;101250.50;;;19.50
24714;BMP280;12820;51.580;5.010;2023-08-08T19:39:59;101257.47;;;19.47
24714;BMP280;12820;51.580;5.010;2023-08-08T19:45:02;101251.78;;;19.40
24714;BMP280;12820;51.580;5.010;2023-08-08T19:50:05;101248.69;;;19.34
24714;BMP280;12820;51.580;5.010;2023-08-08T19:55:08;101231.16;;;19.27
24714;BMP280;12820;51.580;5.010;2023-08-08T20:00:10;101233.97;;;19.21
24714;BMP280;12820;51.580;5.010;2023-08-08T20:05:13;101223.97;;;19.17
24714;BMP280;12820;51.580;5.010;2023-08-08T20:10:15;101212.19;;;19.14
24714;BMP280;12820;51.580;5.010;2023-08-08T20:15:17;101197.03;;;19.11
24714;BMP280;12820;51.580;5.010;2023-08-08T20:20:20;101180.19;;;19.07
24714;BMP280;12820;51.580;5.010;2023-08-08T20:25:22;101180.34;;;19.04
24714;BMP280;12820;51.580;5.010;2023-08-08T20:30:24;101180.53;;;19.00
24714;BMP280;12820;51.580;5.010;2023-08-08T20:35:27;101183.19;;;18.97
24714;BMP280;12820;51.580;5.010;2023-08-08T20:40:29;101188.44;;;18.94
24714;BMP280;12820;51.580;5.010;2023-08-08T20:45:32;101186.84;;;18.92
24714;BMP280;12820;51.580;5.010;2023-08-08T20:50:34;101186.09;;;18.90
24714;BMP280;12820;51.580;5.010;2023-08-08T20:55:36;101176.88;;;18.87
24714;BMP280;12820;51.580;5.010;2023-08-08T21:00:38;101173.50;;;18.87
24714;BMP280;12820;51.580;5.010;2023-08-08T21:05:40;101161.69;;;18.85
24714;BMP280;12820;51.580;5.010;2023-08-08T21:10:42;101159.16;;;18.85
24714;BMP280;12820;51.580;5.010;2023-08-08T21:15:44;101169.38;;;18.83
24714;BMP280;12820;51.580;5.010;2023-08-08T21:20:47;101155.06;;;18.81
24714;BMP280;12820;51.580;5.010;2023-08-08T21:25:49;101149.22;;;18.79
24714;BMP280;12820;51.580;5.010;2023-08-08T21:30:52;101145.03;;;18.78
24714;BMP280;12820;51.580;5.010;2023-08-08T21:35:54;101153.56;;;18.77
24714;BMP280;12820;51.580;5.010;2023-08-08T21:40:56;101133.22;;;18.75
24714;BMP280;12820;51.580;5.010;2023-08-08T21:45:58;101139.22;;;18.74
24714;BMP280;12820;51.580;5.010;2023-08-08T21:51:01;101147.78;;;18.73
24714;BMP280;12820;51.580;5.010;2023-08-08T21:56:03;101139.34;;;18.71
24714;BMP280;12820;51.580;5.010;2023-08-08T22:01:06;101150.41;;;18.70
24714;BMP280;12820;51.580;5.010;2023-08-08T22:06:08;101156.44;;;18.68
24714;BMP280;12820;51.580;5.010;2023-08-08T22:11:10;101165.75;;;18.69
24714;BMP280;12820;51.580;5.010;2023-08-08T22:16:14;101170.19;;;18.64
24714;BMP280;12820;51.580;5.010;2023-08-08T22:21:16;101182.22;;;18.61
24714;BMP280;12820;51.580;5.010;2023-08-08T22:26:19;101186.63;;;18.57
24714;BMP280;12820;51.580;5.010;2023-08-08T22:31:21;101199.63;;;18.50
24714;BMP280;12820;51.580;5.010;2023-08-08T22:36:23;101205.03;;;18.43
24714;BMP280;12820;51.580;5.010;2023-08-08T22:41:25;101194.25;;;18.36
24714;BMP280;12820;51.580;5.010;2023-08-08T22:46:27;101193.69;;;18.30
24714;BMP280;12820;51.580;5.010;2023-08-08T22:51:30;101198.97;;;18.26
24714;BMP280;12820;51.580;5.010;2023-08-08T22:56:32;101201.66;;;18.21
24714;BMP280;12820;51.580;5.010;2023-08-08T23:01:35;101189.94;;;18.17
24714;BMP280;12820;51.580;5.010;2023-08-08T23:06:37;101198.59;;;18.14
24714;BMP280;12820;51.580;5.010;2023-08-08T23:11:39;101208.06;;;18.10
24714;BMP280;12820;51.580;5.010;2023-08-08T23:16:42;101205.69;;;18.06
24714;BMP280;12820;51.580;5.010;2023-08-08T23:21:44;101215.97;;;18.03
24714;BMP280;12820;51.580;5.010;2023-08-08T23:26:47;101220.34;;;17.99
24714;BMP280;12820;51.580;5.010;2023-08-08T23:31:49;101205.28;;;17.95
24714;BMP280;12820;51.580;5.010;2023-08-08T23:36:51;101223.19;;;17.92
24714;BMP280;12820;51.580;5.010;2023-08-08T23:41:54;101211.41;;;17.90
24714;BMP280;12820;51.580;5.010;2023-08-08T23:46:56;101208.91;;;17.88
24714;BMP280;12820;51.580;5.010;2023-08-08T23:52:00;101191.19;;;17.87
24714;BMP280;12820;51.580;5.010;2023-08-08T23:57:02;101201.41;;;17.85
